Time;durP1;ratioP1;P1;durP2;ratioP2;P2;SDS_P1;SDS_P2;PMS_P1;PMS_P2;Temp;Humidity;BMP_temperature;BMP_pressure;BME280_temperature;BME280_humidity;BME280_pressure;Samples;Min_cycle;Max_cycle;Signal;HPM_P1;HPM_P2
2021/11/22 00:00:48;;;;;;;42.67;23.77;;;179.20;2252.80;;;;;;4939244;29;20027;-76
2021/11/22 00:03:14;;;;;;;41.22;22.35;;;154.30;2252.80;;;;;;4939223;29;20106;-75
2021/11/22 00:05:40;;;;;;;;;;;154.40;2252.80;;;;;;4956624;29;20019;-75
2021/11/22 00:08:06;;;;;;;43.08;22.50;;;154.10;2252.80;;;;;;4956303;29;19906;-75
2021/11/22 00:10:34;;;;;;;39.55;22.60;;;153.70;2252.80;;;;;;4938860;29;20503;-75
2021/11/22 00:13:00;;;;;;;43.33;22.88;;;153.60;2252.80;;;;;;4938926;29;20055;-75
2021/11/22 00:15:25;;;;;;;;;;;153.70;2252.80;;;;;;4956172;28;20501;-75
2021/11/22 00:17:52;;;;;;;40.25;20.85;;;128.90;2252.80;;;;;;4940547;28;19942;-76
2021/11/22 00:20:20;;;;;;;37.95;20.33;;;153.60;2252.80;;;;;;4938240;29;20039;-75
2021/11/22 00:22:46;;;;;;;35.20;19.48;;;153.90;2252.80;;;;;;4955567;29;20078;-75
2021/11/22 00:25:13;;;;;;;;;;;153.90;2252.80;;;;;;4938905;29;20023;-75
2021/11/22 00:27:39;;;;;;;36.78;18.83;;;154.10;2252.80;;;;;;4938467;29;19933;-75
2021/11/22 00:30:06;;;;;;;37.92;18.85;;;154.00;2252.80;;;;;;4938344;29;20031;-74
2021/11/22 00:32:35;;;;;;;32.97;18.42;;;154.10;2252.80;;;;;;4938302;29;20023;-75
2021/11/22 00:35:04;;;;;;;30.67;17.80;;;154.10;2252.80;;;;;;4955013;29;20562;-75
2021/11/22 00:37:34;;;;;;;33.92;18.38;;;154.10;2252.80;;;;;;4946923;28;20036;-75
2021/11/22 00:40:01;;;;;;;33.65;18.90;;;154.00;2252.80;;;;;;4946791;28;20043;-75
2021/11/22 00:42:27;;;;;;;30.70;18.60;;;154.00;2252.80;;;;;;4965841;28;20113;-74
2021/11/22 00:44:53;;;;;;;;;;;153.70;2252.80;;;;;;4964880;28;20101;-75
2021/11/22 00:47:19;;;;;;;30.98;17.00;;;154.00;2252.80;;;;;;4964485;28;19933;-75
2021/11/22 00:49:44;;;;;;;;;;;154.20;2252.80;;;;;;4945292;28;20491;-75
2021/11/22 00:52:10;;;;;;;27.40;16.05;;;154.50;2252.80;;;;;;4965713;28;19906;-77
2021/11/22 00:54:36;;;;;;;;;;;154.50;2252.80;;;;;;4938252;29;20110;-75
2021/11/22 00:57:02;;;;;;;29.50;15.82;;;154.50;2252.80;;;;;;4937851;29;20482;-76
2021/11/22 00:59:28;;;;;;;29.70;17.35;;;154.40;2252.80;;;;;;4954956;29;20035;-75
2021/11/22 01:01:54;;;;;;;;;;;154.40;2252.80;;;;;;4955392;29;20023;-76
2021/11/22 01:04:20;;;;;;;34.67;16.63;;;154.40;2252.80;;;;;;4954882;29;20001;-75
2021/11/22 01:06:47;;;;;;;34.13;17.05;;;154.20;2252.80;;;;;;4945943;28;20035;-75
2021/11/22 01:09:13;;;;;;;27.58;17.08;;;154.00;2252.80;;;;;;4965037;28;20101;-75
2021/11/22 01:11:39;;;;;;;31.65;18.35;;;153.80;2252.80;;;;;;4947357;28;20055;-76
2021/11/22 01:14:04;;;;;;;;;;;153.90;2252.80;;;;;;4966621;28;20536;-75
2021/11/22 01:16:30;;;;;;;31.95;17.20;;;153.90;2252.80;;;;;;4943868;28;19916;-75
2021/11/22 01:18:57;;;;;;;;;;;153.90;2252.80;;;;;;4965207;28;20021;-75
2021/11/22 01:21:23;;;;;;;27.77;16.50;;;154.00;2252.80;;;;;;4945939;28;19906;-85
2021/11/22 01:23:50;;;;;;;33.22;17.48;;;154.10;2252.80;;;;;;4964475;28;20098;-84
2021/11/22 01:26:16;;;;;;;28.50;17.17;;;154.30;2252.80;;;;;;4947153;29;20427;-82
2021/11/22 01:28:42;;;;;;;;;;;154.30;2252.80;;;;;;4964505;28;20110;-84
2021/11/22 01:31:08;;;;;;;30.73;18.00;;;154.30;2252.80;;;;;;4949165;28;20049;-84
2021/11/22 01:33:33;;;;;;;;;;;154.30;2252.80;;;;;;4964247;28;20390;-78
2021/11/22 01:35:59;;;;;;;26.88;15.75;;;154.50;2252.80;;;;;;4938421;29;19906;-78
2021/11/22 01:38:25;;;;;;;;;;;179.20;2252.80;;;;;;4946669;28;20034;-78
2021/11/22 01:40:51;;;;;;;28.20;16.50;;;154.40;2252.80;;;;;;4966696;28;19910;-84
2021/11/22 01:43:17;;;;;;;;;;;154.40;2252.80;;;;;;4955856;28;20081;-84
2021/11/22 01:45:48;;;;;;;32.92;18.17;;;154.50;2252.80;;;;;;4958235;28;19907;-78
2021/11/22 01:48:16;;;;;;;32.97;18.13;;;154.40;2252.80;;;;;;4964243;28;20071;-80
2021/11/22 01:50:44;;;;;;;29.27;16.77;;;154.50;2252.80;;;;;;4949108;28;20074;-84
2021/11/22 01:53:10;;;;;;;28.80;17.65;;;179.20;2252.80;;;;;;4966044;28;20061;-85
2021/11/22 01:55:37;;;;;;;33.72;18.02;;;154.50;2252.80;;;;;;4938123;29;20059;-86
2021/11/22 01:58:03;;;;;;;36.70;16.80;;;154.40;2252.80;;;;;;4945707;28;20028;-83
2021/11/22 02:00:54;;;;;;;33.30;16.60;;;154.40;2252.80;;;;;;4948655;28;20058;-78
2021/11/22 02:03:21;;;;;;;29.42;16.13;;;153.80;2252.80;;;;;;4970180;28;20517;-85
2021/11/22 02:05:51;;;;;;;32.90;16.83;;;153.60;2252.80;;;;;;4950184;28;20028;-85
2021/11/22 02:08:18;;;;;;;32.45;17.65;;;128.90;2252.80;;;;;;4951831;28;20027;-86
2021/11/22 02:10:44;;;;;;;31.25;16.80;;;128.90;2252.80;;;;;;4966735;28;20039;-86
2021/11/22 02:13:10;;;;;;;;;;;128.90;2252.80;;;;;;4947493;28;20030;-86
2021/11/22 02:15:36;;;;;;;29.73;15.85;;;128.80;2252.80;;;;;;4965254;28;19906;-81
2021/11/22 02:18:02;;;;;;;33.83;17.27;;;128.50;2252.80;;;;;;4950139;28;20042;-86
2021/11/22 02:20:30;;;;;;;28.13;15.90;;;128.30;2252.80;;;;;;4969108;28;20030;-85
2021/11/22 02:23:02;;;;;;;29.77;17.45;;;128.20;2252.80;;;;;;4955533;28;20023;-81
2021/11/22 02:25:31;;;;;;;29.50;16.58;;;128.20;2252.80;;;;;;4949875;28;20399;-79
2021/11/22 02:27:59;;;;;;;30.17;16.15;;;128.20;2252.80;;;;;;4954242;28;20041;-85
2021/11/22 02:30:30;;;;;;;28.48;17.20;;;128.40;2252.80;;;;;;4958853;29;20035;-84
2021/11/22 02:32:59;;;;;;;29.60;17.25;;;128.60;2252.80;;;;;;4958530;29;20027;-84
2021/11/22 02:35:26;;;;;;;32.05;17.30;;;128.80;2252.80;;;;;;4940912;29;20078;-82
2021/11/22 02:37:52;;;;;;;32.38;18.65;;;153.60;2252.80;;;;;;4940861;29;20059;-84
2021/11/22 02:40:17;;;;;;;;;;;128.90;2252.80;;;;;;4982831;28;20035;-80
2021/11/22 02:42:44;;;;;;;33.17;17.35;;;128.70;2252.80;;;;;;4982488;28;19922;-79
2021/11/22 02:45:12;;;;;;;31.42;16.33;;;128.80;2252.80;;;;;;4945296;28;20468;-83
2021/11/22 02:47:41;;;;;;;27.70;16.55;;;153.60;2252.80;;;;;;4966299;28;20031;-78
2021/11/22 02:50:11;;;;;;;33.00;19.25;;;153.70;2252.80;;;;;;4964307;28;20150;-78
2021/11/22 02:52:37;;;;;;;34.10;17.83;;;128.90;2252.80;;;;;;4963421;28;20046;-84
2021/11/22 02:55:05;;;;;;;32.63;18.55;;;128.80;2252.80;;;;;;4950752;28;20024;-78
2021/11/22 02:57:31;;;;;;;30.13;17.73;;;128.70;2252.80;;;;;;4946832;28;20042;-77
2021/11/22 02:59:57;;;;;;;;;;;128.70;2252.80;;;;;;4951251;28;20467;-77
2021/11/22 03:02:23;;;;;;;33.25;19.40;;;128.80;2252.80;;;;;;4948509;28;19916;-78
2021/11/22 03:04:48;;;;;;;;;;;128.80;2252.80;;;;;;4968765;28;20114;-86
2021/11/22 03:07:14;;;;;;;33.55;16.90;;;128.80;2252.80;;;;;;4949000;28;19906;-86
2021/11/22 03:09:40;;;;;;;30.88;18.10;;;128.60;2252.80;;;;;;4967727;28;20043;-84
2021/11/22 03:12:09;;;;;;;;;;;128.60;2252.80;;;;;;4950641;28;20053;-82
2021/11/22 03:14:35;;;;;;;32.13;17.27;;;153.60;2252.80;;;;;;4951026;28;19906;-78
2021/11/22 03:17:02;;;;;;;28.85;16.85;;;153.70;2252.80;;;;;;4949833;28;20015;-78
2021/11/22 03:19:28;;;;;;;34.25;18.83;;;153.80;2252.80;;;;;;4966194;28;20022;-80
2021/11/22 03:21:53;;;;;;;;;;;153.90;2252.80;;;;;;4952310;28;20019;-83
2021/11/22 03:24:20;;;;;;;32.08;17.75;;;153.90;2252.80;;;;;;4950693;28;19921;-83
2021/11/22 03:26:46;;;;;;;27.70;16.85;;;153.80;2252.80;;;;;;4948048;28;20062;-78
2021/11/22 03:29:11;;;;;;;;;;;153.80;2252.80;;;;;;4949223;28;20071;-83
2021/11/22 03:31:38;;;;;;;37.65;18.95;;;153.90;2252.80;;;;;;4959532;28;19910;-83
2021/11/22 03:34:05;;;;;;;35.88;19.10;;;153.90;2252.80;;;;;;4949829;28;20101;-83
2021/11/22 03:36:32;;;;;;;38.78;19.13;;;154.10;2252.80;;;;;;4950512;28;20038;-78
2021/11/22 03:39:00;;;;;;;34.58;18.92;;;154.10;2252.80;;;;;;4960099;28;20022;-79
2021/11/22 03:41:28;;;;;;;33.65;18.67;;;154.30;2252.80;;;;;;4940271;29;20027;-84
2021/11/22 03:44:10;;;;;;;44.53;20.75;;;154.30;2252.80;;;;;;4940180;29;20039;-83
2021/11/22 03:46:37;;;;;;;56.92;25.75;;;154.30;2252.80;;;;;;4956750;29;20022;-78
2021/11/22 03:49:03;;;;;;;64.10;29.95;;;154.50;2252.80;;;;;;4939818;29;20032;-83
2021/11/22 03:51:30;;;;;;;47.25;26.08;;;154.50;2252.80;;;;;;4939756;29;20055;-84
2021/11/22 03:53:55;;;;;;;52.88;25.55;;;154.10;2252.80;;;;;;4939196;29;20106;-84
2021/11/22 03:56:21;;;;;;;;;;;179.20;2252.80;;;;;;4940163;29;20572;-83
2021/11/22 03:58:47;;;;;;;44.28;24.65;;;179.20;2252.80;;;;;;4941958;28;19918;-78
2021/11/22 04:01:12;;;;;;;;;;;179.20;2252.80;;;;;;4965181;28;20030;-78
2021/11/22 04:03:38;;;;;;;48.55;23.10;;;179.30;2252.80;;;;;;4945457;28;19914;-81
2021/11/22 04:06:04;;;;;;;;;;;179.30;2252.80;;;;;;4949959;28;20054;-84
2021/11/22 04:08:30;;;;;;;40.08;21.25;;;179.30;2252.80;;;;;;4943173;28;19918;-85
2021/11/22 04:10:57;;;;;;;49.15;25.10;;;179.30;2252.80;;;;;;4960779;28;20114;-84
2021/11/22 04:13:28;;;;;;;42.25;23.13;;;179.40;2252.80;;;;;;4969816;28;20491;-83
2021/11/22 04:15:54;;;;;;;;;;;179.40;2252.80;;;;;;4950199;29;20031;-82
2021/11/22 04:18:20;;;;;;;41.50;23.98;;;179.40;2252.80;;;;;;4956468;28;19906;-84
2021/11/22 04:20:46;;;;;;;40.97;23.08;;;179.40;2252.80;;;;;;4954144;28;20034;-84
2021/11/22 04:23:12;;;;;;;;;;;179.40;2252.80;;;;;;4947746;28;20038;-84
2021/11/22 04:25:38;;;;;;;39.63;22.50;;;179.40;2252.80;;;;;;4949618;28;20464;-81
2021/11/22 04:28:06;;;;;;;55.15;25.38;;;179.30;2252.80;;;;;;4946634;28;20053;-84
2021/11/22 04:30:32;;;;;;;46.58;25.70;;;154.50;2252.80;;;;;;4941372;28;20027;-82
2021/11/22 04:32:58;;;;;;;45.28;25.98;;;154.30;2252.80;;;;;;4961303;28;20019;-83
2021/11/22 04:35:24;;;;;;;55.45;29.48;;;154.10;2252.80;;;;;;4965289;28;20467;-85
2021/11/22 04:37:50;;;;;;;;;;;154.30;2252.80;;;;;;4939748;29;20047;-82
2021/11/22 04:40:17;;;;;;;51.85;29.38;;;154.40;2252.80;;;;;;4950111;28;19906;-84
2021/11/22 04:42:47;;;;;;;54.25;28.35;;;154.20;2252.80;;;;;;4963500;28;20037;-85
2021/11/22 04:45:15;;;;;;;47.00;27.35;;;154.20;2252.80;;;;;;4948392;28;20081;-77
2021/11/22 04:47:43;;;;;;;51.33;28.75;;;154.30;2252.80;;;;;;4942009;28;20100;-84
2021/11/22 04:50:10;;;;;;;49.63;27.95;;;154.50;2252.80;;;;;;4938790;28;20361;-84
2021/11/22 04:52:36;;;;;;;51.95;28.88;;;154.50;2252.80;;;;;;4941344;28;20031;-84
2021/11/22 04:55:02;;;;;;;;;;;154.40;2252.80;;;;;;4941913;28;20030;-79
2021/11/22 04:57:28;;;;;;;53.67;29.23;;;154.40;2252.80;;;;;;4942832;28;19907;-77
2021/11/22 04:59:54;;;;;;;;;;;179.20;2252.80;;;;;;4939635;28;20031;-79
2021/11/22 05:02:19;;;;;;;64.82;34.80;;;179.40;2252.80;;;;;;4943378;28;20351;-84
2021/11/22 05:04:45;;;;;;;;;;;179.30;2252.80;;;;;;4963909;28;20030;-82
2021/11/22 05:07:11;;;;;;;61.75;34.78;;;179.30;2252.80;;;;;;4945924;29;19920;-81
2021/11/22 05:09:37;;;;;;;;;;;179.40;2252.80;;;;;;4938894;29;20043;-78
2021/11/22 05:12:03;;;;;;;63.53;34.40;;;179.30;2252.80;;;;;;4937469;28;19925;-78
2021/11/22 05:14:29;;;;;;;66.90;35.65;;;179.40;2252.80;;;;;;4941280;28;20035;-77
2021/11/22 05:16:55;;;;;;;;;;;179.50;2252.80;;;;;;4939892;29;20494;-76
2021/11/22 05:19:21;;;;;;;77.20;42.15;;;179.20;2252.80;;;;;;4955470;29;19918;-76
2021/11/22 05:21:46;;;;;;;84.30;42.30;;;154.40;2252.80;;;;;;4954060;29;20027;-76
2021/11/22 05:24:12;;;;;;;;;;;179.20;2252.80;;;;;;4963822;28;20098;-82
2021/11/22 05:26:39;;;;;;;71.85;39.75;;;179.30;2252.80;;;;;;4937784;28;19914;-83
2021/11/22 05:29:08;;;;;;;83.05;40.53;;;179.40;2252.80;;;;;;4944408;29;20479;-76
2021/11/22 05:31:35;;;;;;;78.30;42.42;;;179.50;2252.80;;;;;;4955673;29;20035;-81
2021/11/22 05:34:01;;;;;;;71.57;41.42;;;179.50;2252.80;;;;;;4938182;29;20044;-85
2021/11/22 05:36:28;;;;;;;73.85;40.30;;;179.40;2252.80;;;;;;4959338;29;20020;-76
2021/11/22 05:38:54;;;;;;;74.90;38.25;;;179.40;2252.80;;;;;;4942060;29;20086;-85
2021/11/22 05:41:20;;;;;;;;;;;179.40;2252.80;;;;;;4973126;28;20039;-83
2021/11/22 05:43:46;;;;;;;74.45;39.85;;;205.30;2252.80;;;;;;4945747;29;19929;-79
2021/11/22 05:46:11;;;;;;;;;;;179.50;2252.80;;;;;;4959654;29;20422;-79
2021/11/22 05:48:38;;;;;;;71.97;40.65;;;179.40;2252.80;;;;;;4959239;29;19912;-82
2021/11/22 05:51:07;;;;;;;83.30;44.58;;;179.40;2252.80;;;;;;4959387;28;20027;-83
2021/11/22 05:53:35;;;;;;;77.38;42.25;;;179.40;2252.80;;;;;;4942104;29;20066;-78
2021/11/22 05:56:06;;;;;;;77.25;43.72;;;179.20;2252.80;;;;;;4944260;28;20086;-81
2021/11/22 05:58:32;;;;;;;78.65;41.08;;;154.40;2252.80;;;;;;4946113;29;20035;-78
2021/11/22 06:01:00;;;;;;;80.60;44.92;;;179.20;2252.80;;;;;;4941770;28;20048;-80
2021/11/22 06:03:28;;;;;;;90.45;48.13;;;179.50;2252.80;;;;;;4956649;28;20050;-79
2021/11/22 06:05:54;;;;;;;101.25;55.67;;;179.60;2252.80;;;;;;4953137;28;20030;-75
2021/11/22 06:08:20;;;;;;;95.75;47.60;;;179.50;2252.80;;;;;;4963412;28;20161;-76
2021/11/22 06:10:46;;;;;;;;;;;179.60;2252.80;;;;;;4959302;28;20550;-76
2021/11/22 06:13:12;;;;;;;86.47;46.65;;;179.70;2252.80;;;;;;4948481;28;19916;-76
2021/11/22 06:15:39;;;;;;;94.20;47.85;;;179.70;2252.80;;;;;;4959339;28;20035;-76
2021/11/22 06:18:05;;;;;;;83.97;45.72;;;179.80;2252.80;;;;;;4943686;29;20027;-78
2021/11/22 06:20:31;;;;;;;;;;;179.70;2252.80;;;;;;4958497;28;20046;-75
2021/11/22 06:22:57;;;;;;;75.88;40.65;;;179.70;2252.80;;;;;;4958037;29;19957;-76
2021/11/22 06:25:22;;;;;;;;;;;179.40;2252.80;;;;;;4942273;29;20395;-76
2021/11/22 06:27:49;;;;;;;84.53;38.50;;;179.20;2252.80;;;;;;4948831;29;20342;-78
2021/11/22 06:30:15;;;;;;;73.93;42.90;;;179.30;2252.80;;;;;;4942498;29;20062;-75
2021/11/22 06:32:40;;;;;;;;;;;179.30;2252.80;;;;;;4941732;29;20027;-79
2021/11/22 06:35:07;;;;;;;84.20;43.60;;;179.50;2252.80;;;;;;4941134;29;20255;-75
2021/11/22 06:37:34;;;;;;;90.93;46.75;;;179.40;2252.80;;;;;;4958151;29;20078;-78
2021/11/22 06:40:09;;;;;;;78.60;41.90;;;179.40;2252.80;;;;;;4941039;29;20546;-76
2021/11/22 06:42:35;;;;;;;77.18;41.40;;;179.20;2252.80;;;;;;4940161;29;20062;-77
2021/11/22 06:45:02;;;;;;;89.03;48.30;;;179.50;2252.80;;;;;;4940746;29;20086;-79
2021/11/22 06:47:28;;;;;;;97.80;52.85;;;179.60;2252.80;;;;;;4940872;29;20028;-78
2021/11/22 06:50:09;;;;;;;;;;;179.80;2252.80;;;;;;4958381;29;20027;-75
2021/11/22 06:52:36;;;;;;;107.45;58.65;;;179.90;2252.80;;;;;;4940564;29;19906;-75
2021/11/22 06:55:03;;;;;;;99.20;53.97;;;180.10;2252.80;;;;;;4957571;29;20027;-76
2021/11/22 06:57:29;;;;;;;102.15;56.10;;;204.80;2252.80;;;;;;4940251;29;20387;-75
2021/11/22 06:59:54;;;;;;;;;;;205.00;2252.80;;;;;;4940891;29;20028;-75
2021/11/22 07:02:24;;;;;;;94.95;52.42;;;204.90;2252.80;;;;;;4957579;29;19962;-75
2021/11/22 07:04:50;;;;;;;91.70;51.42;;;204.90;2252.80;;;;;;4939815;29;20126;-76
2021/11/22 07:07:15;;;;;;;;;;;204.80;2252.80;;;;;;4940700;29;20423;-75
2021/11/22 07:09:42;;;;;;;81.75;47.45;;;205.00;2252.80;;;;;;4939878;29;19918;-75
2021/11/22 07:12:08;;;;;;;79.32;47.97;;;205.00;2252.80;;;;;;4957301;29;20492;-75
2021/11/22 07:14:36;;;;;;;93.25;50.30;;;205.10;2252.80;;;;;;4940132;29;20030;-75
2021/11/22 07:17:02;;;;;;;93.90;49.15;;;205.10;2252.80;;;;;;4940065;29;20110;-76
2021/11/22 07:19:28;;;;;;;;;;;205.20;2252.80;;;;;;4940215;29;20031;-76
2021/11/22 07:21:53;;;;;;;83.82;44.35;;;205.10;2252.80;;;;;;4953818;29;19906;-76
2021/11/22 07:24:20;;;;;;;;;;;205.10;2252.80;;;;;;4939541;29;20075;-75
2021/11/22 07:26:45;;;;;;;76.65;41.08;;;205.10;2252.80;;;;;;4957045;29;19961;-75
2021/11/22 07:29:11;;;;;;;;;;;205.10;2252.80;;;;;;4941242;29;20027;-76
2021/11/22 07:31:37;;;;;;;87.85;50.58;;;205.20;2252.80;;;;;;4939996;28;20314;-75
2021/11/22 07:34:03;;;;;;;;;;;205.20;2252.80;;;;;;4955137;28;20581;-74
2021/11/22 07:36:29;;;;;;;80.32;42.88;;;205.20;2252.80;;;;;;4963907;28;19906;-77
2021/11/22 07:38:54;;;;;;;;;;;205.20;2252.80;;;;;;4948929;28;20078;-77
2021/11/22 07:41:20;;;;;;;78.30;43.20;;;205.30;2252.80;;;;;;4942300;28;19973;-76
2021/11/22 07:43:46;;;;;;;;;;;205.40;2252.80;;;;;;4942344;28;20134;-79
2021/11/22 07:46:12;;;;;;;74.53;46.08;;;205.60;2252.80;;;;;;4941689;29;19914;-76
2021/11/22 07:48:38;;;;;;;87.70;49.03;;;205.40;2252.80;;;;;;4939450;29;20036;-75
2021/11/22 07:51:04;;;;;;;;;;;205.60;2252.80;;;;;;4940138;29;20028;-75
2021/11/22 07:53:31;;;;;;;78.18;48.40;;;205.60;2252.80;;;;;;4956672;29;20033;-76
2021/11/22 07:55:57;;;;;;;94.68;55.33;;;205.50;2252.80;;;;;;4956436;29;20030;-76
2021/11/22 07:58:23;;;;;;;96.60;53.70;;;205.40;2252.80;;;;;;4938693;29;20497;-75
2021/11/22 08:00:49;;;;;;;;;;;205.70;2252.80;;;;;;4939756;29;20042;-75
2021/11/22 08:03:15;;;;;;;92.32;52.85;;;205.70;2252.80;;;;;;4956394;29;20354;-75
2021/11/22 08:05:42;;;;;;;103.22;55.58;;;205.50;2252.80;;;;;;4938158;29;20038;-76
2021/11/22 08:08:08;;;;;;;89.78;53.58;;;230.50;2252.80;;;;;;4956347;29;20027;-78
2021/11/22 08:10:35;;;;;;;;;;;230.60;2252.80;;;;;;4939177;29;20521;-79
2021/11/22 08:13:08;;;;;;;80.93;47.38;;;230.60;2252.80;;;;;;4956222;29;20354;-75
2021/11/22 08:15:35;;;;;;;82.75;49.25;;;230.50;2252.80;;;;;;4956303;29;20444;-76
2021/11/22 08:18:04;;;;;;;78.22;47.70;;;230.50;2252.80;;;;;;4938833;28;20035;-76
2021/11/22 08:20:30;;;;;;;78.57;46.67;;;230.50;2252.80;;;;;;4943806;28;20148;-75
2021/11/22 08:22:56;;;;;;;;;;;230.40;2252.80;;;;;;4948383;29;20554;-76
2021/11/22 08:25:24;;;;;;;93.45;52.70;;;180.10;2252.80;;;;;;4948521;28;19960;-75
2021/11/22 08:27:53;;;;;;;100.55;56.83;;;205.50;2252.80;;;;;;4943714;28;20022;-75
2021/11/22 08:30:20;;;;;;;103.18;56.75;;;205.40;2252.80;;;;;;4965418;28;20031;-76
2021/11/22 08:32:51;;;;;;;91.05;55.28;;;205.50;2252.80;;;;;;4964631;28;20019;-79
2021/11/22 08:35:19;;;;;;;108.60;58.33;;;205.60;2252.80;;;;;;4956215;29;20035;-79
2021/11/22 08:37:46;;;;;;;101.53;57.67;;;205.60;2252.80;;;;;;4939215;29;20027;-79
2021/11/22 08:40:17;;;;;;;102.00;56.58;;;205.60;2252.80;;;;;;4939791;28;20502;-84
2021/11/22 08:42:44;;;;;;;100.13;57.13;;;205.60;2252.80;;;;;;4975432;28;20409;-79
2021/11/22 08:45:11;;;;;;;109.47;60.03;;;205.50;2252.80;;;;;;4975520;28;20026;-82
2021/11/22 08:47:37;;;;;;;117.20;62.83;;;205.50;2252.80;;;;;;4958627;28;20034;-81
2021/11/22 08:50:04;;;;;;;;;;;205.60;2252.80;;;;;;4958505;28;20042;-76
2021/11/22 08:52:30;;;;;;;114.03;61.35;;;205.50;2252.80;;;;;;4957546;28;19941;-77
2021/11/22 08:54:56;;;;;;;;;;;205.70;2252.80;;;;;;4975060;28;20461;-75
2021/11/22 08:57:22;;;;;;;114.80;59.30;;;205.70;2252.80;;;;;;4957407;28;19948;-76
2021/11/22 08:59:47;;;;;;;;;;;230.40;2252.80;;;;;;4957942;28;20066;-76
2021/11/22 09:02:14;;;;;;;113.22;57.47;;;230.50;2252.80;;;;;;4957012;28;19932;-75
2021/11/22 09:04:40;;;;;;;119.90;63.72;;;230.60;2252.80;;;;;;4957365;28;20022;-76
2021/11/22 09:07:08;;;;;;;;;;;230.70;2252.80;;;;;;4957961;28;20090;-77
2021/11/22 09:09:34;;;;;;;108.90;58.72;;;230.70;2252.80;;;;;;4956443;28;19917;-76
2021/11/22 09:12:00;;;;;;;;;;;230.90;2252.80;;;;;;4974840;28;20035;-76
2021/11/22 09:14:26;;;;;;;114.68;64.18;;;231.30;2252.80;;;;;;4957492;28;19906;-77
2021/11/22 09:16:51;;;;;;;;;;;231.00;2252.80;;;;;;4949609;28;20569;-75
2021/11/22 09:19:17;;;;;;;117.28;66.78;;;231.20;2252.80;;;;;;4963872;28;19906;-75
2021/11/22 09:21:43;;;;;;;;;;;231.20;2252.80;;;;;;4950894;29;20024;-75
2021/11/22 09:24:09;;;;;;;116.30;67.05;;;231.30;2252.80;;;;;;4938115;28;19919;-80
2021/11/22 09:26:35;;;;;;;123.22;66.57;;;231.30;2252.80;;;;;;4960282;28;20034;-78
2021/11/22 09:29:03;;;;;;;125.80;69.60;;;231.10;2252.80;;;;;;4936816;29;20137;-81
2021/11/22 09:31:29;;;;;;;120.00;67.63;;;231.00;2252.80;;;;;;4955368;29;20035;-82
2021/11/22 09:33:54;;;;;;;;;;;231.20;2252.80;;;;;;4938497;29;20031;-76
2021/11/22 09:36:21;;;;;;;120.35;65.10;;;256.00;2252.80;;;;;;4937416;29;19957;-79
2021/11/22 09:38:47;;;;;;;113.35;63.47;;;256.40;2252.80;;;;;;4943270;28;20027;-76
2021/11/22 09:41:13;;;;;;;113.40;63.95;;;231.30;2252.80;;;;;;4964053;28;20023;-79
2021/11/22 09:43:46;;;;;;;115.55;66.35;;;231.30;2252.80;;;;;;4937807;29;20085;-76
2021/11/22 09:46:13;;;;;;;114.63;65.68;;;231.30;2252.80;;;;;;4937778;29;20031;-76
2021/11/22 09:48:40;;;;;;;122.40;68.03;;;256.00;2252.80;;;;;;4954869;29;20055;-80
2021/11/22 09:51:09;;;;;;;118.78;65.78;;;231.30;2252.80;;;;;;4938086;29;20019;-76
2021/11/22 09:53:35;;;;;;;114.63;63.97;;;256.00;2252.80;;;;;;4955061;29;20432;-76
2021/11/22 09:56:00;;;;;;;;;;;256.00;2252.80;;;;;;4955192;29;20110;-76
2021/11/22 09:58:27;;;;;;;105.95;60.15;;;256.10;2252.80;;;;;;4962178;28;19911;-77
2021/11/22 10:00:56;;;;;;;114.45;61.72;;;256.40;2252.80;;;;;;4939555;29;20038;-77
2021/11/22 10:03:24;;;;;;;108.25;61.80;;;256.10;2252.80;;;;;;4942456;28;20461;-81
2021/11/22 10:06:01;;;;;;;101.30;60.95;;;256.20;2252.80;;;;;;4963419;28;20047;-75
2021/11/22 10:08:28;;;;;;;106.20;58.30;;;256.30;2252.80;;;;;;4949002;28;20026;-79
2021/11/22 10:10:58;;;;;;;97.97;54.13;;;256.20;2252.80;;;;;;4945560;28;20063;-80
2021/11/22 10:13:23;;;;;;;100.22;54.72;;;256.20;2252.80;;;;;;4946914;28;20386;-78
2021/11/22 10:15:52;;;;;;;99.93;54.55;;;256.30;2252.80;;;;;;4946834;28;20069;-76
2021/11/22 10:18:20;;;;;;;94.63;54.05;;;256.30;2252.80;;;;;;4947207;28;20042;-80
2021/11/22 10:20:46;;;;;;;92.40;55.78;;;256.40;2252.80;;;;;;4941113;29;20043;-81
2021/11/22 10:23:13;;;;;;;93.80;55.95;;;256.60;2252.80;;;;;;4947204;28;20031;-77
2021/11/22 10:25:44;;;;;;;93.68;54.65;;;256.50;2252.80;;;;;;4943266;28;20093;-77
2021/11/22 10:28:20;;;;;;;83.40;51.47;;;256.50;2252.80;;;;;;4946088;28;20027;-78
2021/11/22 10:31:02;;;;;;;82.55;48.47;;;256.60;2252.80;;;;;;4940194;29;20043;-81
2021/11/22 10:33:32;;;;;;;81.63;47.30;;;256.50;2252.80;;;;;;4957261;29;20039;-78
2021/11/22 10:36:00;;;;;;;72.85;45.47;;;256.50;2252.80;;;;;;4939655;29;20041;-83
2021/11/22 10:38:32;;;;;;;70.22;41.25;;;256.60;2252.80;;;;;;4957024;29;20023;-82
2021/11/22 10:41:03;;;;;;;64.55;38.17;;;256.80;2252.80;;;;;;4938215;29;20039;-80
2021/11/22 10:43:51;;;;;;;62.42;39.97;;;256.80;2252.80;;;;;;4939299;28;20088;-75
2021/11/22 10:46:29;;;;;;;66.68;38.92;;;281.70;2278.40;;;;;;4937578;29;20050;-75
2021/11/22 10:49:16;;;;;;;64.57;39.05;;;281.80;2278.40;;;;;;4945464;29;20027;-77
2021/11/22 10:51:46;;;;;;;65.75;40.75;;;282.00;2278.40;;;;;;4938593;29;20487;-76
2021/11/22 10:54:14;;;;;;;65.55;39.72;;;282.00;2278.40;;;;;;4937481;29;20114;-83
2021/11/22 10:56:45;;;;;;;71.25;41.47;;;282.00;2278.40;;;;;;4956738;29;20031;-79
2021/11/22 10:59:20;;;;;;;64.25;41.85;;;282.00;2278.40;;;;;;4954650;29;20070;-76
2021/11/22 11:01:58;;;;;;;68.10;42.38;;;281.90;2278.40;;;;;;4957442;29;20028;-82
2021/11/22 11:04:34;;;;;;;92.43;51.08;;;282.00;2278.40;;;;;;4939261;29;20035;-80
2021/11/22 11:07:02;;;;;;;66.20;38.03;;;282.10;2278.40;;;;;;4937961;29;20022;-76
2021/11/22 11:09:38;;;;;;;72.53;41.55;;;282.20;2278.40;;;;;;4956405;28;20297;-83
2021/11/22 11:12:03;;;;;;;78.85;46.67;;;282.40;2278.40;;;;;;4939792;29;20462;-83
2021/11/22 11:14:31;;;;;;;90.47;49.25;;;282.50;2278.40;;;;;;4945790;28;20150;-88
2021/11/22 11:17:11;;;;;;;70.18;41.25;;;282.50;2278.40;;;;;;4966077;28;20046;-77
2021/11/22 11:19:38;;;;;;;71.03;40.95;;;282.50;2278.40;;;;;;4948057;28;20058;-83
2021/11/22 11:22:04;;;;;;;78.55;43.10;;;282.40;2278.40;;;;;;4964975;28;20031;-79
2021/11/22 11:24:31;;;;;;;63.15;38.38;;;282.50;2278.40;;;;;;4964626;28;20410;-82
2021/11/22 11:26:57;;;;;;;68.32;38.95;;;282.30;2278.40;;;;;;4945685;28;20034;-78
2021/11/22 11:29:23;;;;;;;64.25;40.97;;;282.50;2278.40;;;;;;4942829;29;20065;-82
2021/11/22 11:31:49;;;;;;;68.47;41.22;;;282.40;2278.40;;;;;;4938005;28;20031;-76
2021/11/22 11:34:17;;;;;;;64.68;41.58;;;282.40;2278.40;;;;;;4939101;28;20042;-88
2021/11/22 11:37:15;;;;;;;67.28;40.83;;;282.30;2278.40;;;;;;4942097;28;20028;-78
2021/11/22 11:40:17;;;;;;;64.85;40.63;;;282.20;2278.40;;;;;;4878660;29;20051;-85
2021/11/22 11:43:08;;;;;;;60.42;37.60;;;282.30;2278.40;;;;;;4868154;29;20029;-78
2021/11/22 11:45:47;;;;;;;69.53;38.35;;;282.20;2278.40;;;;;;4888827;29;20045;-76
2021/11/22 11:48:32;;;;;;;78.95;41.30;;;281.90;2278.40;;;;;;4880801;29;20061;-76
2021/11/22 11:51:13;;;;;;;74.63;40.78;;;282.00;2278.40;;;;;;4885592;29;20072;-89
2021/11/22 11:54:11;;;;;;;67.22;40.30;;;281.90;2278.40;;;;;;4882491;29;20108;-84
2021/11/22 11:56:51;;;;;;;67.88;37.13;;;282.10;2278.40;;;;;;4885952;29;20060;-85
2021/11/22 11:59:29;;;;;;;73.63;40.03;;;282.10;2278.40;;;;;;4883730;29;20592;-84
2021/11/22 12:02:15;;;;;;;64.13;39.72;;;282.00;2278.40;;;;;;4887042;29;20044;-84
2021/11/22 12:04:47;;;;;;;64.93;38.63;;;281.90;2278.40;;;;;;4869554;29;20048;-84
2021/11/22 12:07:31;;;;;;;70.88;40.72;;;282.00;2278.40;;;;;;4880331;29;20032;-83
2021/11/22 12:10:27;;;;;;;81.40;42.25;;;281.80;2278.40;;;;;;4878998;29;20049;-77
2021/11/22 12:13:05;;;;;;;80.25;44.35;;;281.80;2278.40;;;;;;4840928;29;20042;-76
2021/11/22 12:15:42;;;;;;;69.30;41.00;;;281.90;2278.40;;;;;;4841262;29;20034;-79
2021/11/22 12:18:11;;;;;;;70.03;43.03;;;281.80;2278.40;;;;;;4896823;29;20052;-80
2021/11/22 12:20:41;;;;;;;72.00;40.95;;;281.80;2278.40;;;;;;4905437;29;20033;-81